createdAt,value
2018-08-23T00:00:43.468Z,9.83
2018-08-23T00:03:17.466Z,9.93
2018-08-23T00:05:53.342Z,10.60
2018-08-23T00:08:22.846Z,9.33
2018-08-23T00:10:52.249Z,8.80
2018-08-23T00:13:21.350Z,9.40
2018-08-23T00:15:50.186Z,10.17
2018-08-23T00:18:18.941Z,8.87
2018-08-23T00:20:47.632Z,8.53
2018-08-23T00:23:16.393Z,10.00
2018-08-23T00:25:45.109Z,9.33
2018-08-23T00:28:13.882Z,9.97
2018-08-23T00:30:43.958Z,9.50
2018-08-23T00:33:12.723Z,9.27
2018-08-23T00:35:41.421Z,9.43
2018-08-23T00:38:10.188Z,9.07
2018-08-23T00:40:41.506Z,8.90
2018-08-23T00:43:11.667Z,10.30
2018-08-23T00:45:40.417Z,10.00
2018-08-23T00:48:09.180Z,8.50
2018-08-23T00:51:00.488Z,9.20
2018-08-23T00:53:30.715Z,9.30
2018-08-23T00:56:13.876Z,10.20
2018-08-23T00:58:45.175Z,8.33
2018-08-23T01:01:14.408Z,8.27
2018-08-23T01:03:43.601Z,9.70
2018-08-23T01:06:12.469Z,9.27
2018-08-23T01:08:41.141Z,9.43
2018-08-23T01:11:10.468Z,9.20
2018-08-23T01:13:42.546Z,9.30
2018-08-23T01:16:19.083Z,9.23
2018-08-23T01:18:52.724Z,9.63
2018-08-23T01:21:25.674Z,9.17
2018-08-23T01:23:59.092Z,9.90
2018-08-23T01:26:31.965Z,8.70
2018-08-23T01:29:06.010Z,9.17
2018-08-23T01:31:38.678Z,9.13
2018-08-23T01:34:11.672Z,9.23
2018-08-23T01:36:45.522Z,9.83
2018-08-23T01:39:18.774Z,8.67
2018-08-23T01:41:52.099Z,8.70
2018-08-23T01:44:30.920Z,9.40
2018-08-23T01:47:09.566Z,8.90
2018-08-23T01:49:46.033Z,10.33
2018-08-23T01:52:20.035Z,9.23
2018-08-23T01:54:53.838Z,9.77
2018-08-23T01:57:32.632Z,9.10
2018-08-23T02:00:01.543Z,8.93
2018-08-23T02:02:30.314Z,9.37
2018-08-23T02:04:59.062Z,9.13
2018-08-23T02:07:27.841Z,9.80
2018-08-23T02:09:56.682Z,9.77
2018-08-23T02:12:25.833Z,9.20
2018-08-23T02:15:02.783Z,8.93
2018-08-23T02:18:10.831Z,10.00
2018-08-23T02:20:39.550Z,9.80
2018-08-23T02:23:08.366Z,9.57
2018-08-23T02:25:37.092Z,10.03
2018-08-23T02:28:10.697Z,8.87
2018-08-23T02:30:53.162Z,9.60
2018-08-23T02:33:22.066Z,9.93
2018-08-23T02:36:22.783Z,9.80
2018-08-23T02:39:01.344Z,10.07
2018-08-23T02:41:30.393Z,9.40
2018-08-23T02:43:59.233Z,8.83
2018-08-23T02:46:28.029Z,10.00
2018-08-23T02:48:56.785Z,9.27
2018-08-23T02:51:39.002Z,9.90
2018-08-23T02:54:11.171Z,10.57
2018-08-23T02:56:39.941Z,9.30
2018-08-23T02:59:08.686Z,9.27
2018-08-23T03:01:41.786Z,9.90
2018-08-23T03:04:13.158Z,10.50
2018-08-23T03:06:55.987Z,10.10
2018-08-23T03:09:30.577Z,11.20
2018-08-23T03:12:00.623Z,10.07
2018-08-23T03:14:29.830Z,10.93
2018-08-23T03:17:34.282Z,10.83
2018-08-23T03:20:17.887Z,10.60
2018-08-23T03:22:50.203Z,10.73
2018-08-23T03:25:20.218Z,10.03
2018-08-23T03:27:48.955Z,10.47
2018-08-23T03:30:18.714Z,10.53
2018-08-23T03:32:47.498Z,10.60
2018-08-23T03:35:16.298Z,10.23
2018-08-23T03:37:45.098Z,10.50
2018-08-23T03:40:14.857Z,11.20
2018-08-23T03:42:43.742Z,10.80
2018-08-23T03:45:17.753Z,11.90
2018-08-23T03:47:55.622Z,12.07
2018-08-23T03:50:24.321Z,11.43
2018-08-23T03:52:54.285Z,10.47
2018-08-23T03:55:24.236Z,10.60
2018-08-23T03:57:57.169Z,11.97
2018-08-23T04:00:31.123Z,11.03
2018-08-23T04:03:01.794Z,11.70
2018-08-23T04:05:30.560Z,10.17
2018-08-23T04:07:59.268Z,10.53
2018-08-23T04:10:28.175Z,11.33
2018-08-23T04:12:56.957Z,11.67
2018-08-23T04:15:31.644Z,10.73
2018-08-23T04:18:08.417Z,11.27
2018-08-23T04:20:41.817Z,10.33
2018-08-23T04:23:10.564Z,10.57
2018-08-23T04:25:39.298Z,12.93
2018-08-23T04:28:08.017Z,11.97
2018-08-23T04:30:36.749Z,11.53
2018-08-23T04:33:05.658Z,11.70
2018-08-23T04:35:34.488Z,12.93
2018-08-23T04:38:03.290Z,10.33
2018-08-23T04:40:32.073Z,11.20
2018-08-23T04:43:00.877Z,10.23
2018-08-23T04:45:30.995Z,11.90
2018-08-23T04:48:08.316Z,10.83
2018-08-23T04:50:39.671Z,11.17
2018-08-23T04:53:08.534Z,10.40
2018-08-23T04:55:37.370Z,10.77
2018-08-23T04:58:06.218Z,10.67
2018-08-23T05:00:34.983Z,11.33
2018-08-23T05:03:03.723Z,10.83
2018-08-23T05:05:32.457Z,11.77
2018-08-23T05:08:01.253Z,11.00
2018-08-23T05:10:29.971Z,11.63
2018-08-23T05:12:58.742Z,12.07
2018-08-23T05:15:27.461Z,11.23
2018-08-23T05:17:56.203Z,11.80
2018-08-23T05:20:25.035Z,10.70
2018-08-23T05:22:58.927Z,11.77
2018-08-23T05:25:27.666Z,11.60
2018-08-23T05:28:16.939Z,11.57
2018-08-23T05:30:46.813Z,11.10
2018-08-23T05:33:20.531Z,10.60
2018-08-23T05:35:49.351Z,12.10
2018-08-23T05:38:18.877Z,11.10
2018-08-23T05:40:53.579Z,12.00
2018-08-23T05:43:22.794Z,11.20
2018-08-23T05:45:55.656Z,12.17
2018-08-23T05:48:32.006Z,12.87
2018-08-23T05:51:02.313Z,12.80
2018-08-23T05:53:31.094Z,12.60
2018-08-23T05:56:00.773Z,11.63
2018-08-23T05:58:33.310Z,13.03
2018-08-23T06:01:02.465Z,13.27
2018-08-23T06:03:31.209Z,11.23
2018-08-23T06:05:59.928Z,12.40
2018-08-23T06:08:28.647Z,13.43
2018-08-23T06:11:03.532Z,12.87
2018-08-23T06:13:32.495Z,13.50
2018-08-23T06:16:02.520Z,12.10
2018-08-23T06:18:31.452Z,13.20
2018-08-23T06:21:00.168Z,13.90
2018-08-23T06:23:41.269Z,14.00
2018-08-23T06:26:09.996Z,14.00
2018-08-23T06:28:38.757Z,13.23
2018-08-23T06:31:07.525Z,14.13
2018-08-23T06:33:41.588Z,15.97
2018-08-23T06:36:10.863Z,14.50
2018-08-23T06:38:40.648Z,13.80
2018-08-23T06:41:09.625Z,14.43
2018-08-23T06:43:39.077Z,14.23
2018-08-23T06:46:08.039Z,13.73
2018-08-23T06:48:36.828Z,14.03
2018-08-23T06:51:09.875Z,15.80
2018-08-23T06:53:46.944Z,13.13
2018-08-23T06:56:16.780Z,12.37
2018-08-23T06:58:45.626Z,11.13
2018-08-23T07:01:30.737Z,12.17
2018-08-23T07:04:11.535Z,11.07
2018-08-23T07:06:40.423Z,11.00
2018-08-23T07:09:15.878Z,11.33
2018-08-23T07:11:45.580Z,12.33
2018-08-23T07:14:16.583Z,10.53
2018-08-23T07:16:46.912Z,11.73
2018-08-23T07:19:25.802Z,11.50
2018-08-23T07:21:55.467Z,11.77
2018-08-23T07:24:37.642Z,10.50
2018-08-23T07:27:09.168Z,10.73
2018-08-23T07:29:38.221Z,11.40
2018-08-23T07:32:08.416Z,11.30
2018-08-23T07:34:37.408Z,12.00
2018-08-23T07:37:11.725Z,10.60
2018-08-23T07:39:44.772Z,10.50
2018-08-23T07:42:13.502Z,10.23
2018-08-23T07:44:42.846Z,10.10
2018-08-23T07:47:11.819Z,12.20
2018-08-23T07:49:40.632Z,11.60
2018-08-23T07:52:09.520Z,11.80
2018-08-23T07:54:38.330Z,12.80
2018-08-23T07:57:07.169Z,11.43
2018-08-23T07:59:36.047Z,11.40
2018-08-23T08:02:05.046Z,9.90
2018-08-23T08:04:34.254Z,11.13
2018-08-23T08:07:03.143Z,11.40
2018-08-23T08:09:32.029Z,11.07
2018-08-23T08:12:01.031Z,9.67
2018-08-23T08:14:34.854Z,10.73
2018-08-23T08:17:15.752Z,9.97
2018-08-23T08:19:50.460Z,10.87
2018-08-23T08:22:20.865Z,9.90
2018-08-23T08:25:01.199Z,10.17
2018-08-23T08:27:30.318Z,10.10
2018-08-23T08:29:59.673Z,10.97
2018-08-23T08:32:32.799Z,10.80
2018-08-23T08:35:01.590Z,11.07
2018-08-23T08:37:30.348Z,10.80
2018-08-23T08:39:59.146Z,9.40
2018-08-23T08:42:30.144Z,10.17
2018-08-23T08:45:13.753Z,9.73
2018-08-23T08:48:31.694Z,10.70
2018-08-23T08:51:35.740Z,9.30
2018-08-23T08:54:15.050Z,9.17
2018-08-23T08:57:05.471Z,9.63
2018-08-23T08:59:34.743Z,8.43
2018-08-23T09:02:03.539Z,7.83
2018-08-23T09:04:35.258Z,8.73
2018-08-23T09:07:06.238Z,9.33
2018-08-23T09:09:41.542Z,7.17
2018-08-23T09:12:12.264Z,8.13
2018-08-23T09:14:42.493Z,8.27
2018-08-23T09:17:27.601Z,8.03
2018-08-23T09:20:00.668Z,7.77
2018-08-23T09:22:40.297Z,7.50
2018-08-23T09:25:12.205Z,7.70
2018-08-23T09:27:41.033Z,10.40
2018-08-23T09:30:15.036Z,8.83
2018-08-23T09:32:43.860Z,8.60
2018-08-23T09:35:12.683Z,7.80
2018-08-23T09:37:41.619Z,7.77
2018-08-23T09:40:11.275Z,7.47
2018-08-23T09:42:40.066Z,8.23
2018-08-23T09:45:14.639Z,6.80
2018-08-23T09:47:43.489Z,7.83
2018-08-23T09:50:12.334Z,7.83
2018-08-23T09:52:43.859Z,15.77
2018-08-23T09:55:13.893Z,8.00
2018-08-23T09:57:43.123Z,7.20
2018-08-23T10:00:13.173Z,8.03
2018-08-23T10:02:47.125Z,7.73
2018-08-23T10:05:21.244Z,7.70
2018-08-23T10:07:55.159Z,9.30
2018-08-23T10:10:29.234Z,8.93
2018-08-23T10:13:03.234Z,8.53
2018-08-23T10:15:37.222Z,9.07
2018-08-23T10:18:11.061Z,8.47
2018-08-23T10:20:45.981Z,8.23
2018-08-23T10:23:20.150Z,7.90
2018-08-23T10:25:53.089Z,8.33
2018-08-23T10:28:25.164Z,8.70
2018-08-23T10:30:54.464Z,8.17
2018-08-23T10:33:23.295Z,8.10
2018-08-23T10:35:55.898Z,7.77
2018-08-23T10:38:26.915Z,8.10
2018-08-23T10:41:05.187Z,7.80
2018-08-23T10:43:40.058Z,7.80
2018-08-23T10:46:08.841Z,8.27
2018-08-23T10:48:37.799Z,6.43
2018-08-23T10:51:06.706Z,8.17
2018-08-23T10:53:35.570Z,7.40
2018-08-23T10:56:04.464Z,8.00
2018-08-23T10:58:33.329Z,7.30
2018-08-23T11:01:02.117Z,6.97
2018-08-23T11:03:30.917Z,7.70
2018-08-23T11:05:59.678Z,6.90
2018-08-23T11:08:32.205Z,6.20
2018-08-23T11:11:06.368Z,5.83
2018-08-23T11:13:40.505Z,6.70
2018-08-23T11:16:14.983Z,6.70
2018-08-23T11:18:48.977Z,6.07
2018-08-23T11:21:18.573Z,6.00
2018-08-23T11:23:47.939Z,5.50
2018-08-23T11:26:19.780Z,5.90
2018-08-23T11:28:49.134Z,6.30
2018-08-23T11:31:23.155Z,6.70
2018-08-23T11:33:52.018Z,7.50
2018-08-23T11:36:20.769Z,6.43
2018-08-23T11:38:49.773Z,6.47
2018-08-23T11:41:19.024Z,6.80
2018-08-23T11:43:48.201Z,7.10
2018-08-23T11:46:18.234Z,6.20
2018-08-23T11:48:47.678Z,6.80
2018-08-23T11:51:17.200Z,6.03
2018-08-23T11:53:46.611Z,7.30
2018-08-23T11:56:15.365Z,6.83
2018-08-23T11:58:44.271Z,5.83
2018-08-23T12:01:15.259Z,6.83
2018-08-23T12:03:44.302Z,7.23
2018-08-23T12:06:14.476Z,7.50
2018-08-23T12:08:43.620Z,7.17
2018-08-23T12:11:12.385Z,8.03
2018-08-23T12:13:48.316Z,7.10
2018-08-23T12:16:17.146Z,7.63
2018-08-23T12:18:45.919Z,6.73
2018-08-23T12:21:14.702Z,6.53
2018-08-23T12:23:43.432Z,6.43
2018-08-23T12:26:12.429Z,6.00
2018-08-23T12:28:46.352Z,5.77
2018-08-23T12:31:15.104Z,6.73
2018-08-23T12:33:43.919Z,6.67
2018-08-23T12:36:20.657Z,6.20
2018-08-23T12:38:57.093Z,6.63
2018-08-23T12:41:35.041Z,6.33
2018-08-23T12:44:07.791Z,5.60
2018-08-23T12:46:40.932Z,7.90
2018-08-23T12:49:09.609Z,5.83
2018-08-23T12:51:38.376Z,5.93
2018-08-23T12:56:39.435Z,6.57
2018-08-23T12:59:08.149Z,6.80
2018-08-23T13:01:36.913Z,5.90
2018-08-23T13:04:05.880Z,6.83
2018-08-23T13:06:34.590Z,5.87
2018-08-23T13:09:03.437Z,6.47
2018-08-23T13:11:32.201Z,6.87
2018-08-23T13:14:00.992Z,6.63
2018-08-23T13:16:29.807Z,6.97
2018-08-23T13:18:58.999Z,6.07
2018-08-23T13:21:27.760Z,6.13
2018-08-23T13:23:56.493Z,5.90
2018-08-23T13:26:29.534Z,6.47
2018-08-23T13:28:58.274Z,5.97
2018-08-23T13:31:27.065Z,6.40
2018-08-23T13:33:55.884Z,6.03
2018-08-23T13:36:24.893Z,6.37
2018-08-23T13:38:53.715Z,6.33
2018-08-23T13:41:22.502Z,6.57
2018-08-23T13:43:51.259Z,7.07
2018-08-23T13:46:20.047Z,6.83
2018-08-23T13:48:48.809Z,7.27
2018-08-23T13:51:17.672Z,6.60
2018-08-23T13:53:46.697Z,7.77
2018-08-23T13:56:15.701Z,7.40
2018-08-23T13:58:44.478Z,7.60
2018-08-23T14:01:13.254Z,8.20
2018-08-23T14:03:41.987Z,7.43
2018-08-23T14:06:10.872Z,8.27
2018-08-23T14:08:39.763Z,7.60
2018-08-23T14:11:09.965Z,7.37
2018-08-23T14:13:38.793Z,7.77
2018-08-23T14:16:07.630Z,8.00
2018-08-23T14:18:36.475Z,8.90
2018-08-23T14:21:05.546Z,7.13
2018-08-23T14:23:34.366Z,7.03
2018-08-23T14:26:03.602Z,8.03
2018-08-23T14:28:32.630Z,7.37
2018-08-23T14:31:01.416Z,8.23
2018-08-23T14:33:30.809Z,7.70
2018-08-23T14:36:00.376Z,8.27
2018-08-23T14:38:29.611Z,7.73
2018-08-23T14:40:58.798Z,7.67
2018-08-23T14:43:28.014Z,8.30
2018-08-23T14:46:02.093Z,7.57
2018-08-23T14:48:30.968Z,7.70
2018-08-23T14:51:06.181Z,7.73
2018-08-23T14:53:34.998Z,6.57
2018-08-23T14:56:15.472Z,6.53
2018-08-23T14:58:45.580Z,6.50
2018-08-23T15:01:14.354Z,6.27
2018-08-23T15:03:43.287Z,5.63
2018-08-23T15:06:12.099Z,6.70
2018-08-23T15:08:40.867Z,5.90
2018-08-23T15:11:09.510Z,6.60
2018-08-23T15:13:38.294Z,5.47
2018-08-23T15:16:07.030Z,5.70
2018-08-23T15:18:35.767Z,5.50
2018-08-23T15:23:44.927Z,4.90
2018-08-23T15:26:14.047Z,4.90
2018-08-23T15:28:42.773Z,5.50
2018-08-23T15:31:11.509Z,5.40
2018-08-23T15:33:40.453Z,5.37
2018-08-23T15:36:09.259Z,4.77
2018-08-23T15:38:37.970Z,4.77
2018-08-23T15:41:06.739Z,4.10
2018-08-23T15:43:35.499Z,4.80
2018-08-23T15:46:04.239Z,4.77
2018-08-23T15:48:33.038Z,4.00
2018-08-23T15:51:01.810Z,4.97
2018-08-23T15:53:30.572Z,4.10
2018-08-23T15:55:59.426Z,4.87
2018-08-23T15:58:28.241Z,4.80
2018-08-23T16:00:56.957Z,4.87
2018-08-23T16:03:25.677Z,5.20
2018-08-23T16:05:54.447Z,4.77
2018-08-23T16:08:23.176Z,5.90
2018-08-23T16:10:51.929Z,5.37
2018-08-23T16:13:20.634Z,5.13
2018-08-23T16:15:53.623Z,5.60
2018-08-23T16:18:27.508Z,4.83
2018-08-23T16:21:00.415Z,5.63
2018-08-23T16:23:29.210Z,5.73
2018-08-23T16:25:58.003Z,5.50
2018-08-23T16:28:26.702Z,4.90
2018-08-23T16:30:55.424Z,4.80
2018-08-23T16:33:24.301Z,4.77
2018-08-23T16:35:53.051Z,4.87
2018-08-23T16:38:21.861Z,5.70
2018-08-23T16:40:50.602Z,5.37
2018-08-23T16:43:19.414Z,6.07
2018-08-23T16:45:48.209Z,5.30
2018-08-23T16:48:16.967Z,5.17
2018-08-23T16:50:45.886Z,5.23
2018-08-23T16:53:14.728Z,6.00
2018-08-23T16:55:43.508Z,5.70
2018-08-23T16:58:12.242Z,5.70
2018-08-23T17:00:41.037Z,5.80
2018-08-23T17:03:09.740Z,5.93
2018-08-23T17:05:38.495Z,5.30
2018-08-23T17:08:07.211Z,6.50
2018-08-23T17:10:35.939Z,5.40
2018-08-23T17:13:04.673Z,5.70
2018-08-23T17:15:38.788Z,6.10
2018-08-23T17:18:07.638Z,6.27
2018-08-23T17:20:36.267Z,6.23
2018-08-23T17:23:05.126Z,6.40
2018-08-23T17:25:33.837Z,6.40
2018-08-23T17:28:02.561Z,5.57
2018-08-23T17:30:31.544Z,7.33
2018-08-23T17:33:00.234Z,5.50
2018-08-23T17:35:28.925Z,6.17
2018-08-23T17:37:57.736Z,6.40
2018-08-23T17:40:26.531Z,6.87
2018-08-23T17:42:55.318Z,6.47
2018-08-23T17:45:31.945Z,5.63
2018-08-23T17:48:00.684Z,6.90
2018-08-23T17:50:29.565Z,6.50
2018-08-23T17:52:58.466Z,6.10
2018-08-23T17:55:27.193Z,5.60
2018-08-23T17:57:55.991Z,6.17
2018-08-23T18:00:24.951Z,6.53
2018-08-23T18:02:53.753Z,5.50
2018-08-23T18:05:22.603Z,6.67
2018-08-23T18:07:51.383Z,6.30
2018-08-23T18:10:20.078Z,6.70
2018-08-23T18:12:48.836Z,6.80
2018-08-23T18:15:17.566Z,6.30
2018-08-23T18:17:46.471Z,6.50
2018-08-23T18:20:15.200Z,7.17
2018-08-23T18:22:43.909Z,7.17
2018-08-23T18:25:12.645Z,7.33
2018-08-23T18:27:41.357Z,7.10
2018-08-23T18:30:10.085Z,7.00
2018-08-23T18:32:38.857Z,7.80
2018-08-23T18:35:07.601Z,8.40
2018-08-23T18:37:36.480Z,7.97
2018-08-23T18:40:05.153Z,7.03
2018-08-23T18:42:33.893Z,7.60
2018-08-23T18:45:02.580Z,6.20
2018-08-23T18:47:31.357Z,7.60
2018-08-23T18:50:00.027Z,7.23
2018-08-23T18:52:39.344Z,7.43
2018-08-23T18:55:08.125Z,7.10
2018-08-23T18:57:36.888Z,7.10
2018-08-23T19:00:06.422Z,7.50
2018-08-23T19:02:34.979Z,6.93
2018-08-23T19:05:03.762Z,6.87
2018-08-23T19:07:37.882Z,7.77
2018-08-23T19:10:06.716Z,7.23
2018-08-23T19:12:35.597Z,7.87
2018-08-23T19:15:04.571Z,8.00
2018-08-23T19:17:36.155Z,8.47
2018-08-23T19:20:05.569Z,7.77
2018-08-23T19:22:34.362Z,7.13
2018-08-23T19:25:03.084Z,6.70
2018-08-23T19:27:31.800Z,7.13
2018-08-23T19:30:00.501Z,7.10
2018-08-23T19:32:29.268Z,8.60
2018-08-23T19:34:57.985Z,8.37
2018-08-23T19:37:26.672Z,6.87
2018-08-23T19:39:55.434Z,8.53
2018-08-23T19:42:24.194Z,7.23
2018-08-23T19:44:59.184Z,7.93
2018-08-23T19:47:33.194Z,7.30
2018-08-23T19:50:03.241Z,7.77
2018-08-23T19:52:32.003Z,7.17
2018-08-23T19:55:00.723Z,7.00
2018-08-23T19:57:29.501Z,9.33
2018-08-23T19:59:58.322Z,7.23
2018-08-23T20:02:31.223Z,8.57
2018-08-23T20:05:05.593Z,7.90
2018-08-23T20:07:34.426Z,7.27
2018-08-23T20:10:03.174Z,8.90
2018-08-23T20:12:32.013Z,7.60
2018-08-23T20:15:00.744Z,7.70
2018-08-23T20:17:29.626Z,9.37
2018-08-23T20:19:58.401Z,8.90
2018-08-23T20:22:27.156Z,8.53
2018-08-23T20:24:55.883Z,8.73
2018-08-23T20:27:24.667Z,8.70
2018-08-23T20:29:53.389Z,8.83
2018-08-23T20:32:22.164Z,8.90
2018-08-23T20:34:50.913Z,9.63
2018-08-23T20:37:19.683Z,9.60
2018-08-23T20:39:48.484Z,9.20
2018-08-23T20:42:17.313Z,9.33
2018-08-23T20:44:49.429Z,8.77
2018-08-23T20:47:21.012Z,8.73
2018-08-23T20:49:49.745Z,9.50
2018-08-23T20:52:18.473Z,9.67
2018-08-23T20:54:47.257Z,9.20
2018-08-23T20:57:16.801Z,8.60
2018-08-23T20:59:45.523Z,8.93
2018-08-23T21:02:14.237Z,9.00
2018-08-23T21:04:43.043Z,8.53
2018-08-23T21:07:11.760Z,10.13
2018-08-23T21:09:40.489Z,10.17
2018-08-23T21:12:09.160Z,10.53
2018-08-23T21:14:37.937Z,9.43
2018-08-23T21:17:06.708Z,9.40
2018-08-23T21:19:35.428Z,9.93
2018-08-23T21:22:04.161Z,10.27
2018-08-23T21:24:32.885Z,10.00
2018-08-23T21:27:01.703Z,9.77
2018-08-23T21:29:30.461Z,9.57
2018-08-23T21:31:59.152Z,9.73
2018-08-23T21:34:27.966Z,8.67
2018-08-23T21:36:56.704Z,8.23
2018-08-23T21:39:25.499Z,8.03
2018-08-23T21:41:54.293Z,6.57
2018-08-23T21:44:23.459Z,6.90
2018-08-23T21:46:52.237Z,6.50
2018-08-23T21:49:20.990Z,5.50
2018-08-23T21:51:49.730Z,4.27
2018-08-23T21:54:18.462Z,4.37
2018-08-23T21:56:47.208Z,4.23
2018-08-23T21:59:16.061Z,4.00
2018-08-23T22:01:44.830Z,4.30
2018-08-23T22:04:13.621Z,4.23
2018-08-23T22:06:42.349Z,4.83
2018-08-23T22:09:11.187Z,5.13
2018-08-23T22:11:39.958Z,4.77
2018-08-23T22:14:08.685Z,5.83
2018-08-23T22:16:37.537Z,5.47
2018-08-23T22:19:06.462Z,6.10
2018-08-23T22:21:35.197Z,5.10
2018-08-23T22:24:04.023Z,5.47
2018-08-23T22:26:32.939Z,6.20
2018-08-23T22:29:01.901Z,5.17
2018-08-23T22:31:30.589Z,5.37
2018-08-23T22:33:59.353Z,4.90
2018-08-23T22:36:28.086Z,5.00
2018-08-23T22:38:56.938Z,4.73
2018-08-23T22:41:25.661Z,4.90
2018-08-23T22:43:54.583Z,5.33
2018-08-23T22:46:23.339Z,5.90
2018-08-23T22:48:52.015Z,4.90
2018-08-23T22:51:20.725Z,4.90
2018-08-23T22:53:49.445Z,5.00
2018-08-23T22:56:18.154Z,4.90
2018-08-23T22:58:46.920Z,5.70
2018-08-23T23:01:15.593Z,5.03
2018-08-23T23:03:49.693Z,6.47
2018-08-23T23:06:18.470Z,5.50
2018-08-23T23:08:47.225Z,5.20
2018-08-23T23:11:15.904Z,5.20
2018-08-23T23:13:44.603Z,4.93
2018-08-23T23:16:13.407Z,5.00
2018-08-23T23:18:42.190Z,5.37
2018-08-23T23:21:10.949Z,5.60
2018-08-23T23:23:39.706Z,5.17
2018-08-23T23:26:08.487Z,5.80
2018-08-23T23:28:37.215Z,5.77
2018-08-23T23:31:05.971Z,5.70
2018-08-23T23:33:34.673Z,4.77
2018-08-23T23:36:03.406Z,4.77
2018-08-23T23:38:32.124Z,5.30
2018-08-23T23:41:00.897Z,4.90
2018-08-23T23:43:29.604Z,5.13
2018-08-23T23:45:58.329Z,4.47
2018-08-23T23:48:27.084Z,5.60
2018-08-23T23:50:55.850Z,5.03
2018-08-23T23:53:24.640Z,5.17
2018-08-23T23:55:53.407Z,4.77
2018-08-23T23:58:22.142Z,5.87
